createdAt,value
2019-05-05T00:00:41.790Z,99.99
2019-05-05T00:01:44.918Z,99.99
2019-05-05T00:02:44.808Z,99.99
2019-05-05T00:03:45.914Z,99.99
2019-05-05T00:04:47.296Z,99.99
2019-05-05T00:05:48.724Z,99.99
2019-05-05T00:06:50.097Z,99.99
2019-05-05T00:07:51.491Z,99.99
2019-05-05T00:08:54.641Z,99.99
2019-05-05T00:09:55.124Z,99.99
2019-05-05T00:10:56.981Z,99.99
2019-05-05T00:11:56.935Z,99.99
2019-05-05T00:12:58.321Z,99.99
2019-05-05T00:13:59.739Z,99.99
2019-05-05T00:15:01.133Z,99.99
2019-05-05T00:16:04.501Z,99.99
2019-05-05T00:17:05.236Z,99.99
2019-05-05T00:18:05.413Z,99.99
2019-05-05T00:19:06.562Z,99.99
2019-05-05T00:20:07.943Z,99.99
2019-05-05T00:21:09.321Z,99.99
2019-05-05T00:22:10.703Z,99.99
2019-05-05T00:23:12.135Z,99.99
2019-05-05T00:24:15.065Z,99.99
2019-05-05T00:25:14.872Z,99.99
2019-05-05T00:26:16.247Z,99.99
2019-05-05T00:27:17.669Z,99.99
2019-05-05T00:28:19.062Z,99.99
2019-05-05T00:29:20.450Z,99.99
2019-05-05T00:30:21.830Z,99.99
2019-05-05T00:31:24.240Z,99.99
2019-05-05T00:32:24.635Z,99.99
2019-05-05T00:33:25.898Z,99.99
2019-05-05T00:34:27.278Z,99.99
2019-05-05T00:35:28.692Z,99.99
2019-05-05T00:36:30.072Z,99.99
2019-05-05T00:37:31.461Z,99.99
2019-05-05T00:38:34.630Z,99.99
2019-05-05T00:39:34.511Z,99.99
2019-05-05T00:40:35.635Z,99.99
2019-05-05T00:41:37.020Z,99.99
2019-05-05T00:42:38.403Z,99.99
2019-05-05T00:43:39.786Z,99.99
2019-05-05T00:44:41.173Z,99.99
2019-05-05T00:45:42.549Z,99.99
2019-05-05T00:46:44.686Z,99.99
2019-05-05T00:47:45.280Z,99.99
2019-05-05T00:48:46.668Z,99.99
2019-05-05T00:49:49.437Z,99.99
2019-05-05T00:50:51.707Z,99.99
2019-05-05T00:51:50.752Z,99.99
2019-05-05T00:52:52.145Z,99.99
2019-05-05T00:53:55.321Z,99.99
2019-05-05T00:54:55.594Z,99.99
2019-05-05T00:55:56.212Z,99.99
2019-05-05T00:56:57.602Z,99.99
2019-05-05T00:57:58.987Z,99.99
2019-05-05T00:59:00.364Z,99.99
2019-05-05T01:00:01.744Z,99.99
2019-05-05T01:01:05.196Z,99.99
2019-05-05T01:02:04.622Z,99.99
2019-05-05T01:03:05.834Z,99.99
2019-05-05T01:04:07.222Z,99.99
2019-05-05T01:05:08.605Z,99.99
2019-05-05T01:06:09.986Z,99.99
2019-05-05T01:07:11.372Z,99.99
2019-05-05T01:08:13.973Z,99.99
2019-05-05T01:09:14.848Z,99.99
2019-05-05T01:10:15.498Z,99.99
2019-05-05T01:11:16.869Z,99.99
2019-05-05T01:12:18.256Z,99.99
2019-05-05T01:13:19.677Z,99.99
2019-05-05T01:14:21.067Z,99.99
2019-05-05T01:15:22.447Z,99.99
2019-05-05T01:16:24.783Z,99.99
2019-05-05T01:17:25.394Z,99.99
2019-05-05T01:18:26.555Z,99.99
2019-05-05T01:19:27.935Z,99.99
2019-05-05T01:20:29.320Z,99.99
2019-05-05T01:21:30.698Z,99.99
2019-05-05T01:22:34.091Z,99.99
2019-05-05T01:23:34.801Z,99.99
2019-05-05T01:24:34.772Z,99.99
2019-05-05T01:25:36.156Z,99.99
2019-05-05T01:26:37.538Z,99.99
2019-05-05T01:27:38.915Z,99.99
2019-05-05T01:28:40.300Z,99.99
2019-05-05T01:29:41.694Z,99.99
2019-05-05T01:30:44.419Z,99.99
2019-05-05T01:31:45.220Z,99.99
2019-05-05T01:32:45.774Z,99.99
2019-05-05T01:33:47.150Z,99.99
2019-05-05T01:34:48.577Z,99.99
2019-05-05T01:35:49.955Z,99.99
2019-05-05T01:36:51.340Z,99.99
2019-05-05T01:37:54.394Z,99.99
2019-05-05T01:38:55.257Z,99.99
2019-05-05T01:39:55.417Z,99.99
2019-05-05T01:40:56.801Z,99.99
2019-05-05T01:41:58.190Z,99.99
2019-05-05T01:42:59.593Z,99.99
2019-05-05T01:44:00.977Z,99.99
2019-05-05T01:45:04.391Z,99.99
2019-05-05T01:46:05.068Z,99.99
2019-05-05T01:47:05.318Z,99.99
2019-05-05T01:48:06.418Z,99.99
2019-05-05T01:49:07.804Z,99.99
2019-05-05T01:50:18.448Z,99.99
2019-05-05T01:51:10.574Z,99.99
2019-05-05T01:52:11.958Z,99.99
2019-05-05T01:53:15.102Z,99.99
2019-05-05T01:54:14.688Z,99.99
2019-05-05T01:55:16.082Z,99.99
2019-05-05T01:56:17.454Z,99.99
2019-05-05T01:57:18.837Z,99.99
2019-05-05T01:58:20.218Z,99.99
2019-05-05T01:59:21.600Z,99.99
2019-05-05T02:00:25.219Z,99.99
2019-05-05T02:01:24.627Z,99.99
2019-05-05T02:02:25.674Z,99.99
2019-05-05T02:03:27.069Z,99.99
2019-05-05T02:04:28.453Z,99.99
2019-05-05T02:05:29.833Z,99.99
2019-05-05T02:06:31.217Z,99.99
2019-05-05T02:07:34.132Z,99.99
2019-05-05T02:08:34.851Z,99.99
2019-05-05T02:09:35.516Z,99.99
2019-05-05T02:10:36.649Z,99.99
2019-05-05T02:11:38.032Z,99.99
2019-05-05T02:12:39.408Z,99.99
2019-05-05T02:13:40.795Z,99.99
2019-05-05T02:14:43.909Z,99.99
2019-05-05T02:15:44.554Z,99.99
2019-05-05T02:16:45.188Z,99.99
2019-05-05T02:17:46.203Z,99.99
2019-05-05T02:18:47.588Z,99.99
2019-05-05T02:19:48.964Z,99.99
2019-05-05T02:20:50.352Z,99.99
2019-05-05T02:21:51.728Z,99.99
2019-05-05T02:22:54.739Z,99.99
2019-05-05T02:23:54.784Z,99.99
2019-05-05T02:24:55.811Z,99.99
2019-05-05T02:25:57.196Z,99.99
2019-05-05T02:26:58.581Z,99.99
2019-05-05T02:27:59.994Z,99.99
2019-05-05T02:29:01.374Z,99.99
2019-05-05T02:30:05.741Z,99.99
2019-05-05T02:31:05.581Z,99.99
2019-05-05T02:32:06.309Z,99.99
2019-05-05T02:33:06.804Z,99.99
2019-05-05T02:34:08.186Z,99.99
2019-05-05T02:35:09.571Z,99.99
2019-05-05T02:36:10.954Z,99.99
2019-05-05T02:37:12.330Z,99.99
2019-05-05T02:38:15.685Z,99.99
2019-05-05T02:39:15.959Z,99.99
2019-05-05T02:40:16.438Z,99.99
2019-05-05T02:41:17.819Z,99.99
2019-05-05T02:42:19.202Z,99.99
2019-05-05T02:43:20.584Z,99.99
2019-05-05T02:44:21.979Z,99.99
2019-05-05T02:45:24.933Z,99.99
2019-05-05T02:46:25.390Z,99.99
2019-05-05T02:47:26.047Z,99.99
2019-05-05T02:48:27.453Z,99.99
2019-05-05T02:49:28.832Z,99.99
2019-05-05T02:50:46.664Z,99.99
2019-05-05T02:51:31.567Z,99.99
2019-05-05T02:52:34.728Z,99.99
2019-05-05T02:53:34.309Z,99.99
2019-05-05T02:54:35.688Z,99.99
2019-05-05T02:55:37.066Z,99.99
2019-05-05T02:56:38.449Z,99.99
2019-05-05T02:57:39.823Z,99.99
2019-05-05T02:58:41.206Z,99.99
2019-05-05T02:59:43.502Z,99.99
2019-05-05T03:00:43.929Z,99.99
2019-05-05T03:01:45.320Z,99.99
2019-05-05T03:02:46.693Z,99.99
2019-05-05T03:03:48.077Z,99.99
2019-05-05T03:04:49.459Z,99.99
2019-05-05T03:05:50.881Z,99.99
2019-05-05T03:06:54.047Z,99.99
2019-05-05T03:07:54.346Z,99.99
2019-05-05T03:08:54.938Z,99.99
2019-05-05T03:09:56.323Z,99.99
2019-05-05T03:10:57.706Z,99.99
2019-05-05T03:11:59.095Z,99.99
2019-05-05T03:13:00.485Z,99.99
2019-05-05T03:14:03.949Z,99.99
2019-05-05T03:15:04.155Z,99.99
2019-05-05T03:16:04.566Z,99.99
2019-05-05T03:17:05.948Z,99.99
2019-05-05T03:18:07.332Z,99.99
2019-05-05T03:19:08.726Z,99.99
2019-05-05T03:20:10.110Z,99.99
2019-05-05T03:21:13.888Z,99.99
2019-05-05T03:22:14.157Z,99.99
2019-05-05T03:23:14.186Z,99.99
2019-05-05T03:24:15.594Z,99.99
2019-05-05T03:25:16.982Z,99.99
2019-05-05T03:26:18.365Z,99.99
2019-05-05T03:27:19.750Z,99.99
2019-05-05T03:28:21.132Z,99.99
2019-05-05T03:29:24.183Z,99.99
2019-05-05T03:30:26.142Z,99.99
2019-05-05T03:31:26.150Z,99.99
2019-05-05T03:32:26.575Z,99.99
2019-05-05T03:33:27.955Z,99.99
2019-05-05T03:34:29.336Z,99.99
2019-05-05T03:35:30.719Z,99.99
2019-05-05T03:36:33.797Z,99.99
2019-05-05T03:37:34.393Z,99.99
2019-05-05T03:38:34.805Z,99.99
2019-05-05T03:39:36.183Z,99.99
2019-05-05T03:40:37.567Z,99.99
2019-05-05T03:41:38.965Z,99.99
2019-05-05T03:42:40.346Z,99.99
2019-05-05T03:43:43.413Z,99.99
2019-05-05T03:44:44.048Z,99.99
2019-05-05T03:45:44.498Z,99.99
2019-05-05T03:46:45.771Z,99.99
2019-05-05T03:47:47.161Z,99.99
2019-05-05T03:48:48.548Z,99.99
2019-05-05T03:49:49.974Z,99.99
2019-05-05T03:50:51.360Z,99.99
2019-05-05T03:51:54.269Z,99.99
2019-05-05T03:52:54.419Z,99.99
2019-05-05T03:53:55.440Z,99.99
2019-05-05T03:54:56.828Z,99.99
2019-05-05T03:55:58.208Z,99.99
2019-05-05T03:56:59.597Z,99.99
2019-05-05T03:58:01.023Z,99.99
2019-05-05T03:59:02.403Z,99.99
2019-05-05T04:00:04.354Z,99.99
2019-05-05T04:01:05.145Z,99.99
2019-05-05T04:02:06.535Z,99.99
2019-05-05T04:03:07.925Z,99.99
2019-05-05T04:04:09.302Z,99.99
2019-05-05T04:05:10.713Z,99.99
2019-05-05T04:06:12.109Z,99.99
2019-05-05T04:07:13.972Z,99.99
2019-05-05T04:08:14.854Z,99.99
2019-05-05T04:09:16.239Z,99.99
2019-05-05T04:10:17.648Z,99.99
2019-05-05T04:11:19.037Z,99.99
2019-05-05T04:12:20.427Z,99.99
2019-05-05T04:13:21.809Z,99.99
2019-05-05T04:14:24.702Z,99.99
2019-05-05T04:15:24.588Z,99.99
2019-05-05T04:16:25.948Z,99.99
2019-05-05T04:17:27.330Z,99.99
2019-05-05T04:18:28.751Z,99.99
2019-05-05T04:19:30.132Z,99.99
2019-05-05T04:20:33.566Z,99.99
2019-05-05T04:21:36.026Z,99.99
2019-05-05T04:22:34.301Z,99.99
2019-05-05T04:23:35.558Z,99.99
2019-05-05T04:24:36.952Z,99.99
2019-05-05T04:25:38.338Z,99.99
2019-05-05T04:26:39.718Z,99.99
2019-05-05T04:27:41.107Z,99.99
2019-05-05T04:28:43.610Z,99.99
2019-05-05T04:29:44.090Z,99.99
2019-05-05T04:30:45.199Z,99.99
2019-05-05T04:31:46.588Z,99.99
2019-05-05T04:32:48.016Z,99.99
2019-05-05T04:33:49.406Z,99.99
2019-05-05T04:34:50.793Z,99.99
2019-05-05T04:35:54.374Z,99.99
2019-05-05T04:36:54.672Z,99.99
2019-05-05T04:37:54.873Z,99.99
2019-05-05T04:38:56.261Z,99.99
2019-05-05T04:39:57.645Z,99.99
2019-05-05T04:40:59.031Z,99.99
2019-05-05T04:42:00.416Z,99.99
2019-05-05T04:43:03.654Z,99.99
2019-05-05T04:44:03.998Z,99.99
2019-05-05T04:45:04.525Z,99.99
2019-05-05T04:46:05.916Z,99.99
2019-05-05T04:47:07.302Z,99.99
2019-05-05T04:48:08.684Z,99.43
2019-05-05T04:49:10.073Z,99.24
2019-05-05T04:50:11.459Z,99.20
2019-05-05T04:51:13.918Z,99.01
2019-05-05T04:52:14.377Z,99.01
2019-05-05T04:53:15.549Z,99.01
2019-05-05T04:54:16.932Z,99.39
2019-05-05T04:55:18.320Z,99.10
2019-05-05T04:56:19.709Z,99.20
2019-05-05T04:57:21.095Z,98.72
2019-05-05T04:58:24.140Z,99.10
2019-05-05T04:59:23.832Z,98.25
2019-05-05T05:00:25.221Z,98.25
2019-05-05T05:01:26.609Z,98.25
2019-05-05T05:02:28.005Z,97.87
2019-05-05T05:03:29.398Z,97.87
2019-05-05T05:04:30.791Z,98.44
2019-05-05T05:05:33.629Z,98.16
2019-05-05T05:06:34.180Z,97.87
2019-05-05T05:07:34.860Z,98.91
2019-05-05T05:08:36.253Z,98.91
2019-05-05T05:09:37.827Z,99.01
2019-05-05T05:10:39.217Z,98.63
2019-05-05T05:11:40.640Z,98.30
2019-05-05T05:12:43.449Z,97.54
2019-05-05T05:13:44.024Z,96.31
2019-05-05T05:14:44.725Z,96.22
2019-05-05T05:15:46.122Z,95.12
2019-05-05T05:16:47.511Z,94.08
2019-05-05T05:17:48.903Z,93.32
2019-05-05T05:18:50.291Z,92.09
2019-05-05T05:19:51.674Z,92.18
2019-05-05T05:20:54.632Z,92.18
2019-05-05T05:22:01.667Z,92.76
2019-05-05T05:22:55.769Z,92.94
2019-05-05T05:23:57.151Z,93.41
2019-05-05T05:24:58.541Z,93.89
2019-05-05T05:25:59.933Z,94.08
2019-05-05T05:27:01.317Z,93.99
2019-05-05T05:28:04.131Z,93.99
2019-05-05T05:29:04.564Z,93.80
2019-05-05T05:30:05.412Z,93.84
2019-05-05T05:31:06.793Z,92.61
2019-05-05T05:32:08.185Z,92.23
2019-05-05T05:33:09.570Z,91.85
2019-05-05T05:34:10.963Z,92.52
2019-05-05T05:35:13.918Z,92.47
2019-05-05T05:36:14.378Z,91.19
2019-05-05T05:37:15.069Z,88.90
2019-05-05T05:38:16.454Z,87.52
2019-05-05T05:39:17.852Z,85.34
2019-05-05T05:40:19.233Z,85.24
2019-05-05T05:41:20.624Z,85.15
2019-05-05T05:42:24.070Z,86.24
2019-05-05T05:43:25.242Z,87.19
2019-05-05T05:44:27.675Z,87.76
2019-05-05T05:45:26.083Z,88.34
2019-05-05T05:46:27.464Z,89.00
2019-05-05T05:47:28.868Z,89.95
2019-05-05T05:48:30.260Z,91.04
2019-05-05T05:49:31.658Z,91.71
2019-05-05T05:50:33.910Z,93.41
2019-05-05T05:51:35.276Z,93.41
2019-05-05T05:52:36.674Z,95.22
2019-05-05T05:53:38.057Z,95.51
2019-05-05T05:54:39.443Z,95.03
2019-05-05T05:55:40.861Z,95.31
2019-05-05T05:56:42.249Z,95.12
2019-05-05T05:57:43.928Z,94.65
2019-05-05T05:58:44.999Z,94.56
2019-05-05T05:59:46.419Z,95.31
2019-05-05T06:00:47.803Z,95.41
2019-05-05T06:01:49.184Z,96.08
2019-05-05T06:02:50.575Z,96.45
2019-05-05T06:03:53.506Z,96.55
2019-05-05T06:04:53.978Z,96.88
2019-05-05T06:05:54.679Z,95.84
2019-05-05T06:06:56.076Z,95.94
2019-05-05T06:07:58.188Z,94.70
2019-05-05T06:08:59.618Z,94.03
2019-05-05T06:10:01.002Z,93.27
2019-05-05T06:11:04.276Z,92.85
2019-05-05T06:12:03.749Z,93.37
2019-05-05T06:13:05.143Z,93.41
2019-05-05T06:14:06.529Z,93.51
2019-05-05T06:15:07.920Z,93.51
2019-05-05T06:16:09.318Z,93.51
2019-05-05T06:17:10.700Z,93.32
2019-05-05T06:18:13.626Z,93.41
2019-05-05T06:19:14.065Z,92.94
2019-05-05T06:20:14.844Z,91.71
2019-05-05T06:21:16.284Z,90.66
2019-05-05T06:22:28.136Z,89.85
2019-05-05T06:23:18.977Z,89.09
2019-05-05T06:24:20.364Z,87.65
2019-05-05T06:25:21.762Z,83.84
2019-05-05T06:26:24.041Z,76.71
2019-05-05T06:27:24.527Z,69.70
2019-05-05T06:28:25.923Z,63.48
2019-05-05T06:29:27.970Z,57.43
2019-05-05T06:30:28.679Z,51.86
2019-05-05T06:31:30.084Z,48.85
2019-05-05T06:32:31.484Z,44.96
2019-05-05T06:33:34.546Z,42.38
2019-05-05T06:34:34.248Z,40.20
2019-05-05T06:35:35.649Z,38.49
2019-05-05T06:36:37.051Z,36.32
2019-05-05T06:37:38.455Z,34.29
2019-05-05T06:38:39.862Z,33.45
2019-05-05T06:39:41.272Z,33.18
2019-05-05T06:40:44.267Z,30.91
2019-05-05T06:41:44.048Z,29.36
2019-05-05T06:42:45.452Z,28.59
2019-05-05T06:43:46.861Z,27.83
2019-05-05T06:44:48.269Z,27.81
2019-05-05T06:45:49.671Z,27.92
2019-05-05T06:46:51.092Z,26.87
2019-05-05T06:47:53.689Z,26.50
2019-05-05T06:48:53.966Z,25.82
2019-05-05T06:49:55.247Z,25.84
2019-05-05T06:50:56.653Z,25.05
2019-05-05T06:51:58.061Z,24.88
2019-05-05T06:52:59.475Z,24.97
2019-05-05T06:54:00.875Z,24.21
2019-05-05T06:55:03.647Z,24.11
2019-05-05T06:56:04.111Z,24.02
2019-05-05T06:57:05.033Z,23.44
2019-05-05T06:58:06.451Z,24.00
2019-05-05T06:59:07.861Z,24.78
2019-05-05T07:00:09.286Z,23.52
2019-05-05T07:01:10.694Z,22.93
2019-05-05T07:02:12.105Z,22.65
2019-05-05T07:03:13.890Z,22.47
2019-05-05T07:04:14.880Z,22.76
2019-05-05T07:05:16.288Z,22.49
2019-05-05T07:06:17.698Z,21.43
2019-05-05T07:07:19.118Z,20.94
2019-05-05T07:08:20.531Z,21.14
2019-05-05T07:09:23.931Z,21.03
2019-05-05T07:10:24.466Z,21.70
2019-05-05T07:11:24.723Z,21.22
2019-05-05T07:12:26.115Z,20.99
2019-05-05T07:13:27.538Z,22.60
2019-05-05T07:14:28.959Z,22.78
2019-05-05T07:15:30.377Z,22.99
2019-05-05T07:16:31.791Z,21.85
2019-05-05T07:17:33.858Z,21.65
2019-05-05T07:18:34.577Z,21.92
2019-05-05T07:19:35.987Z,23.33
2019-05-05T07:20:37.403Z,25.40
2019-05-05T07:21:38.813Z,27.68
2019-05-05T07:22:40.219Z,29.29
2019-05-05T07:23:41.629Z,31.37
2019-05-05T07:24:43.641Z,33.26
2019-05-05T07:25:46.057Z,34.57
2019-05-05T07:26:45.780Z,36.09
2019-05-05T07:27:47.192Z,37.59
2019-05-05T07:28:48.597Z,39.08
2019-05-05T07:29:50.002Z,39.73
2019-05-05T07:30:51.446Z,40.50
2019-05-05T07:31:54.365Z,40.86
2019-05-05T07:32:54.154Z,41.41
2019-05-05T07:33:55.568Z,42.56
2019-05-05T07:34:56.968Z,43.30
2019-05-05T07:36:02.948Z,44.65
2019-05-05T07:36:59.750Z,44.45
2019-05-05T07:38:01.160Z,43.54
2019-05-05T07:39:03.816Z,42.51
2019-05-05T07:40:04.212Z,40.37
2019-05-05T07:41:05.310Z,37.27
2019-05-05T07:42:06.721Z,35.04
2019-05-05T07:43:08.127Z,31.72
2019-05-05T07:44:22.295Z,29.61
2019-05-05T07:45:21.174Z,27.57
2019-05-05T07:46:13.526Z,27.46
2019-05-05T07:47:14.583Z,28.81
2019-05-05T07:48:15.017Z,28.25
2019-05-05T07:49:16.436Z,27.49
2019-05-05T07:50:28.551Z,27.59
2019-05-05T07:51:19.215Z,26.84
2019-05-05T07:52:20.633Z,25.31
2019-05-05T07:53:24.331Z,25.19
2019-05-05T07:54:23.645Z,26.51
2019-05-05T07:55:24.771Z,28.20
2019-05-05T07:56:26.182Z,30.87
2019-05-05T07:57:27.592Z,31.80
2019-05-05T07:58:29.005Z,34.07
2019-05-05T07:59:30.408Z,36.05
2019-05-05T08:00:31.828Z,37.85
2019-05-05T08:01:33.871Z,39.18
2019-05-05T08:02:34.633Z,40.67
2019-05-05T08:03:36.050Z,42.18
2019-05-05T08:04:37.448Z,43.59
2019-05-05T08:05:38.867Z,43.19
2019-05-05T08:06:40.275Z,43.93
2019-05-05T08:07:41.679Z,44.70
2019-05-05T08:08:44.296Z,45.75
2019-05-05T08:09:44.654Z,46.48
2019-05-05T08:10:45.846Z,47.34
2019-05-05T08:11:47.237Z,47.92
2019-05-05T08:12:48.636Z,47.03
2019-05-05T08:13:50.038Z,47.23
2019-05-05T08:14:53.588Z,47.71
2019-05-05T08:15:59.095Z,48.47
2019-05-05T08:16:54.181Z,48.21
2019-05-05T08:17:55.575Z,48.66
2019-05-05T08:18:56.981Z,49.04
2019-05-05T08:19:58.385Z,48.85
2019-05-05T08:20:59.784Z,48.21
2019-05-05T08:22:01.179Z,49.18
2019-05-05T08:23:04.141Z,47.13
2019-05-05T08:24:04.657Z,45.45
2019-05-05T08:25:05.304Z,43.41
2019-05-05T08:26:06.716Z,40.89
2019-05-05T08:27:08.125Z,37.37
2019-05-05T08:28:09.529Z,34.91
2019-05-05T08:29:10.964Z,34.64
2019-05-05T08:30:13.983Z,33.87
2019-05-05T08:31:14.490Z,33.64
2019-05-05T08:32:15.110Z,34.68
2019-05-05T08:33:16.509Z,35.61
2019-05-05T08:34:17.927Z,37.32
2019-05-05T08:35:19.320Z,37.16
2019-05-05T08:36:23.445Z,38.20
2019-05-05T08:37:23.657Z,39.62
2019-05-05T08:38:24.354Z,39.69
2019-05-05T08:39:25.575Z,40.63
2019-05-05T08:40:26.973Z,41.20
2019-05-05T08:41:28.383Z,42.33
2019-05-05T08:42:29.779Z,42.52
2019-05-05T08:43:31.186Z,42.52
2019-05-05T08:44:34.150Z,42.33
2019-05-05T08:45:34.902Z,42.33
2019-05-05T08:46:35.325Z,42.54
2019-05-05T08:47:36.731Z,40.65
2019-05-05T08:48:38.137Z,40.94
2019-05-05T08:49:39.542Z,40.69
2019-05-05T08:50:40.946Z,39.04
2019-05-05T08:51:44.103Z,35.14
2019-05-05T08:52:44.442Z,32.60
2019-05-05T08:53:48.026Z,32.46
2019-05-05T08:54:46.442Z,31.15
2019-05-05T08:55:47.854Z,27.62
2019-05-05T08:56:49.262Z,26.50
2019-05-05T08:57:50.663Z,24.19
2019-05-05T08:58:54.356Z,24.02
2019-05-05T08:59:54.486Z,22.83
2019-05-05T09:00:54.810Z,23.86
2019-05-05T09:01:56.214Z,24.71
2019-05-05T09:02:57.632Z,25.44
2019-05-05T09:03:59.041Z,25.98
2019-05-05T09:05:00.456Z,26.72
2019-05-05T09:06:01.864Z,28.50
2019-05-05T09:07:04.788Z,29.83
2019-05-05T09:08:04.770Z,31.63
2019-05-05T09:09:06.011Z,32.38
2019-05-05T09:10:07.417Z,32.84
2019-05-05T09:11:08.823Z,34.45
2019-05-05T09:12:10.231Z,35.49
2019-05-05T09:13:11.640Z,36.25
2019-05-05T09:14:14.692Z,36.90
2019-05-05T09:15:14.437Z,37.76
2019-05-05T09:16:15.849Z,38.05
2019-05-05T09:17:17.246Z,38.53
2019-05-05T09:18:18.662Z,38.62
2019-05-05T09:19:20.061Z,38.62
2019-05-05T09:20:21.471Z,38.35
2019-05-05T09:21:23.984Z,37.23
2019-05-05T09:22:24.597Z,37.24
2019-05-05T09:23:25.634Z,36.10
2019-05-05T09:24:27.048Z,35.81
2019-05-05T09:25:28.447Z,36.36
2019-05-05T09:26:29.868Z,35.83
2019-05-05T09:27:31.264Z,34.71
2019-05-05T09:28:34.141Z,33.90
2019-05-05T09:29:34.756Z,31.54
2019-05-05T09:30:35.404Z,28.89
2019-05-05T09:31:36.810Z,26.32
2019-05-05T09:32:38.218Z,24.62
2019-05-05T09:33:39.625Z,23.49
2019-05-05T09:34:41.034Z,23.39
2019-05-05T09:35:43.685Z,23.02
2019-05-05T09:36:43.946Z,21.88
2019-05-05T09:37:45.214Z,20.83
2019-05-05T09:38:46.631Z,20.06
2019-05-05T09:39:48.042Z,20.82
2019-05-05T09:40:49.455Z,20.06
2019-05-05T09:41:50.865Z,19.60
2019-05-05T09:42:53.564Z,19.68
2019-05-05T09:43:53.892Z,19.93
2019-05-05T09:44:55.038Z,21.35
2019-05-05T09:45:56.439Z,22.19
2019-05-05T09:46:57.867Z,23.41
2019-05-05T09:47:59.268Z,24.65
2019-05-05T09:49:00.676Z,25.48
2019-05-05T09:50:03.786Z,26.72
2019-05-05T09:51:04.371Z,27.73
2019-05-05T09:52:05.039Z,28.59
2019-05-05T09:53:06.209Z,29.82
2019-05-05T09:54:14.054Z,30.57
2019-05-05T09:55:08.980Z,31.61
2019-05-05T09:56:10.388Z,31.99
2019-05-05T09:57:11.802Z,33.22
2019-05-05T09:58:13.760Z,33.80
2019-05-05T09:59:14.584Z,33.97
2019-05-05T10:00:15.982Z,34.64
2019-05-05T10:01:17.398Z,34.74
2019-05-05T10:02:18.796Z,33.97
2019-05-05T10:03:20.206Z,34.26
2019-05-05T10:04:21.616Z,34.36
2019-05-05T10:05:23.622Z,33.70
2019-05-05T10:06:24.483Z,33.53
2019-05-05T10:07:25.765Z,32.87
2019-05-05T10:08:27.171Z,32.51
2019-05-05T10:09:28.583Z,31.58
2019-05-05T10:10:29.994Z,30.36
2019-05-05T10:11:31.407Z,28.75
2019-05-05T10:12:33.809Z,28.12
2019-05-05T10:13:34.193Z,25.64
2019-05-05T10:14:35.594Z,24.32
2019-05-05T10:15:37.002Z,23.07
2019-05-05T10:16:38.410Z,23.25
2019-05-05T10:17:39.825Z,23.27
2019-05-05T10:18:41.237Z,22.60
2019-05-05T10:19:43.943Z,22.12
2019-05-05T10:20:44.034Z,22.60
2019-05-05T10:21:45.447Z,21.84
2019-05-05T10:22:46.850Z,21.83
2019-05-05T10:23:48.254Z,21.53
2019-05-05T10:24:49.659Z,21.70
2019-05-05T10:25:51.062Z,23.40
2019-05-05T10:26:54.209Z,24.82
2019-05-05T10:27:53.927Z,25.29
2019-05-05T10:28:55.206Z,26.15
2019-05-05T10:29:56.608Z,27.38
2019-05-05T10:30:58.020Z,26.59
2019-05-05T10:31:59.434Z,26.68
2019-05-05T10:33:00.841Z,28.30
2019-05-05T10:34:04.380Z,29.35
2019-05-05T10:35:04.564Z,29.34
2019-05-05T10:36:04.989Z,29.82
2019-05-05T10:37:06.403Z,30.68
2019-05-05T10:38:07.818Z,31.35
2019-05-05T10:39:09.229Z,31.16
2019-05-05T10:40:10.637Z,31.07
2019-05-05T10:41:13.415Z,30.89
2019-05-05T10:42:14.501Z,30.71
2019-05-05T10:43:14.995Z,31.58
2019-05-05T10:44:16.155Z,30.71
2019-05-05T10:45:17.558Z,30.62
2019-05-05T10:46:18.977Z,30.02
2019-05-05T10:47:20.378Z,30.11
2019-05-05T10:48:23.465Z,30.78
2019-05-05T10:49:24.391Z,30.47
2019-05-05T10:50:24.712Z,31.32
2019-05-05T10:51:25.874Z,31.80
2019-05-05T10:52:27.280Z,31.79
2019-05-05T10:53:28.682Z,31.50
2019-05-05T10:54:40.537Z,31.98
2019-05-05T10:55:31.452Z,31.21
2019-05-05T10:56:34.445Z,31.69
2019-05-05T10:57:34.227Z,31.90
2019-05-05T10:58:35.631Z,31.30
2019-05-05T10:59:37.034Z,31.30
2019-05-05T11:00:38.438Z,30.27
2019-05-05T11:01:39.849Z,29.33
2019-05-05T11:02:41.254Z,28.31
2019-05-05T11:03:44.503Z,27.76
2019-05-05T11:04:44.231Z,25.48
2019-05-05T11:05:45.417Z,26.46
2019-05-05T11:06:46.815Z,24.37
2019-05-05T11:07:48.224Z,23.72
2019-05-05T11:08:49.641Z,22.46
2019-05-05T11:09:51.044Z,22.06
2019-05-05T11:10:52.444Z,23.21
2019-05-05T11:11:53.840Z,23.96
2019-05-05T11:12:55.240Z,24.52
2019-05-05T11:13:56.645Z,24.98
2019-05-05T11:14:58.057Z,25.45
2019-05-05T11:15:59.466Z,26.49
2019-05-05T11:17:00.883Z,27.34
2019-05-05T11:18:03.822Z,28.09
2019-05-05T11:19:04.360Z,28.94
2019-05-05T11:20:05.031Z,29.31
2019-05-05T11:21:06.434Z,31.12
2019-05-05T11:22:07.844Z,31.59
2019-05-05T11:23:09.249Z,32.54
2019-05-05T11:24:10.650Z,32.73
2019-05-05T11:25:13.749Z,33.01
2019-05-05T11:26:14.275Z,33.01
2019-05-05T11:27:14.774Z,32.23
2019-05-05T11:28:16.168Z,32.52
2019-05-05T11:29:17.562Z,32.81
2019-05-05T11:30:18.980Z,33.48
2019-05-05T11:31:20.390Z,33.57
2019-05-05T11:32:21.787Z,33.95
2019-05-05T11:33:23.708Z,33.57
2019-05-05T11:34:24.746Z,33.57
2019-05-05T11:35:25.926Z,33.76
2019-05-05T11:36:27.409Z,32.62
2019-05-05T11:37:28.806Z,31.96
2019-05-05T11:38:30.210Z,30.83
2019-05-05T11:39:31.619Z,30.38
2019-05-05T11:40:33.015Z,28.88
2019-05-05T11:41:34.419Z,27.58
2019-05-05T11:42:35.829Z,25.20
2019-05-05T11:43:37.229Z,22.81
2019-05-05T11:44:38.645Z,21.87
2019-05-05T11:45:40.065Z,20.74
2019-05-05T11:46:41.460Z,19.88
2019-05-05T11:47:44.309Z,18.63
2019-05-05T11:48:44.281Z,17.39
2019-05-05T11:49:45.680Z,17.98
2019-05-05T11:50:47.676Z,18.75
2019-05-05T11:51:49.074Z,19.02
2019-05-05T11:52:50.492Z,19.00
2019-05-05T11:53:53.856Z,19.65
2019-05-05T11:54:54.393Z,21.37
2019-05-05T11:55:54.983Z,22.89
2019-05-05T11:56:56.036Z,24.80
2019-05-05T11:57:57.722Z,25.26
2019-05-05T11:58:58.818Z,25.93
2019-05-05T12:00:00.218Z,26.59
2019-05-05T12:01:03.552Z,27.45
2019-05-05T12:02:03.775Z,28.20
2019-05-05T12:03:04.423Z,28.77
2019-05-05T12:04:05.811Z,28.96
2019-05-05T12:05:07.217Z,29.33
2019-05-05T12:06:08.613Z,29.42
2019-05-05T12:07:10.018Z,29.90
2019-05-05T12:08:11.431Z,29.79
2019-05-05T12:09:13.967Z,29.69
2019-05-05T12:10:14.208Z,29.88
2019-05-05T12:11:15.657Z,30.65
2019-05-05T12:12:17.067Z,31.04
2019-05-05T12:13:18.461Z,31.13
2019-05-05T12:14:19.865Z,30.36
2019-05-05T12:15:21.269Z,30.65
2019-05-05T12:16:23.974Z,30.46
2019-05-05T12:17:24.271Z,29.88
2019-05-05T12:18:25.458Z,30.00
2019-05-05T12:19:26.864Z,28.17
2019-05-05T12:20:28.264Z,28.27
2019-05-05T12:21:29.740Z,28.27
2019-05-05T12:22:31.156Z,28.85
2019-05-05T12:23:34.053Z,29.24
2019-05-05T12:24:34.011Z,29.91
2019-05-05T12:25:35.295Z,28.96
2019-05-05T12:26:36.708Z,28.56
2019-05-05T12:27:38.115Z,28.37
2019-05-05T12:28:39.525Z,28.08
2019-05-05T12:29:40.932Z,28.56
2019-05-05T12:30:44.309Z,28.85
2019-05-05T12:31:46.371Z,29.23
2019-05-05T12:32:47.771Z,29.05
2019-05-05T12:33:49.178Z,28.19
2019-05-05T12:34:50.575Z,28.78
2019-05-05T12:35:53.838Z,27.73
2019-05-05T12:36:54.003Z,26.21
2019-05-05T12:37:54.701Z,24.87
2019-05-05T12:38:56.099Z,24.77
2019-05-05T12:39:57.514Z,25.64
2019-05-05T12:40:58.908Z,26.59
2019-05-05T12:42:00.306Z,26.97
2019-05-05T12:43:03.539Z,26.30
2019-05-05T12:44:03.419Z,26.40
2019-05-05T12:45:04.639Z,24.87
2019-05-05T12:46:05.807Z,24.60
2019-05-05T12:47:07.214Z,24.32
2019-05-05T12:48:08.619Z,23.18
2019-05-05T12:49:10.014Z,23.08
2019-05-05T12:50:11.408Z,25.39
2019-05-05T12:51:14.607Z,24.71
2019-05-05T12:52:14.176Z,22.99
2019-05-05T12:53:15.578Z,23.16
2019-05-05T12:54:16.982Z,23.54
2019-05-05T12:55:18.380Z,24.68
2019-05-05T12:56:19.792Z,24.76
2019-05-05T12:57:21.197Z,25.43
2019-05-05T12:58:22.599Z,25.32
2019-05-05T12:59:24.921Z,25.32
2019-05-05T13:00:25.365Z,26.56
2019-05-05T13:01:26.767Z,26.65
2019-05-05T13:02:28.181Z,27.14
2019-05-05T13:03:29.591Z,27.81
2019-05-05T13:04:30.997Z,27.52
2019-05-05T13:05:33.973Z,27.98
2019-05-05T13:06:34.550Z,28.17
2019-05-05T13:07:35.119Z,28.75
2019-05-05T13:08:36.522Z,28.46
2019-05-05T13:09:37.918Z,28.06
2019-05-05T13:10:39.325Z,28.64